sensor_id;sensor_type;location;lat;lon;timestamp;pressure;altitude;pressure_sealevel;temperature;humidity
6387;BME280;3226;42.162;24.756;2024-03-06T00:01:45;99495.06;;;7.59;100.00
6387;BME280;3226;42.162;24.756;2024-03-06T00:04:14;99499.28;;;7.48;100.00
6387;BME280;3226;42.162;24.756;2024-03-06T00:06:45;99497.34;;;7.63;100.00
6387;BME280;3226;42.162;24.756;2024-03-06T00:09:13;99491.44;;;7.61;100.00
6387;BME280;3226;42.162;24.756;2024-03-06T00:11:41;99496.41;;;7.64;100.00
6387;BME280;3226;42.162;24.756;2024-03-06T00:14:09;99493.56;;;7.67;100.00
6387;BME280;3226;42.162;24.756;2024-03-06T00:16:39;99496.97;;;7.57;100.00
6387;BME280;3226;42.162;24.756;2024-03-06T00:19:07;99489.66;;;7.62;100.00
6387;BME280;3226;42.162;24.756;2024-03-06T00:21:36;99495.25;;;7.69;100.00
6387;BME280;3226;42.162;24.756;2024-03-06T00:24:05;99489.25;;;7.79;100.00
6387;BME280;3226;42.162;24.756;2024-03-06T00:26:33;99496.13;;;7.80;100.00
6387;BME280;3226;42.162;24.756;2024-03-06T00:29:01;99499.69;;;7.79;100.00
6387;BME280;3226;42.162;24.756;2024-03-06T00:31:29;99489.00;;;7.71;100.00
6387;BME280;3226;42.162;24.756;2024-03-06T00:33:57;99475.41;;;7.55;100.00
6387;BME280;3226;42.162;24.756;2024-03-06T00:36:25;99480.06;;;7.62;100.00
6387;BME280;3226;42.162;24.756;2024-03-06T00:38:54;99502.25;;;7.68;100.00
6387;BME280;3226;42.162;24.756;2024-03-06T00:41:22;99510.16;;;7.66;100.00
6387;BME280;3226;42.162;24.756;2024-03-06T00:43:50;99509.94;;;7.45;100.00
6387;BME280;3226;42.162;24.756;2024-03-06T00:46:18;99517.03;;;7.43;100.00
6387;BME280;3226;42.162;24.756;2024-03-06T00:48:46;99498.47;;;7.48;100.00
6387;BME280;3226;42.162;24.756;2024-03-06T00:51:14;99529.56;;;7.62;100.00
6387;BME280;3226;42.162;24.756;2024-03-06T00:53:42;99508.72;;;7.38;100.00
6387;BME280;3226;42.162;24.756;2024-03-06T00:56:12;99524.31;;;7.51;100.00
6387;BME280;3226;42.162;24.756;2024-03-06T00:58:40;99521.72;;;7.51;100.00
6387;BME280;3226;42.162;24.756;2024-03-06T01:01:08;99528.63;;;7.63;100.00
6387;BME280;3226;42.162;24.756;2024-03-06T01:03:37;99530.78;;;7.70;100.00
6387;BME280;3226;42.162;24.756;2024-03-06T01:06:05;99508.22;;;7.57;100.00
6387;BME280;3226;42.162;24.756;2024-03-06T01:08:33;99523.56;;;7.62;100.00
6387;BME280;3226;42.162;24.756;2024-03-06T01:11:01;99524.25;;;7.64;100.00
6387;BME280;3226;42.162;24.756;2024-03-06T01:13:32;99518.53;;;7.59;100.00
6387;BME280;3226;42.162;24.756;2024-03-06T01:16:00;99520.41;;;7.57;100.00
6387;BME280;3226;42.162;24.756;2024-03-06T01:18:28;99517.25;;;7.64;100.00
6387;BME280;3226;42.162;24.756;2024-03-06T01:20:56;99524.50;;;7.61;100.00
6387;BME280;3226;42.162;24.756;2024-03-06T01:23:24;99517.00;;;7.56;100.00
6387;BME280;3226;42.162;24.756;2024-03-06T01:25:52;99524.59;;;7.59;100.00
6387;BME280;3226;42.162;24.756;2024-03-06T01:28:20;99520.72;;;7.65;100.00
6387;BME280;3226;42.162;24.756;2024-03-06T01:30:49;99510.50;;;7.62;100.00
6387;BME280;3226;42.162;24.756;2024-03-06T01:33:17;99526.03;;;7.63;100.00
6387;BME280;3226;42.162;24.756;2024-03-06T01:35:45;99533.84;;;7.63;100.00
6387;BME280;3226;42.162;24.756;2024-03-06T01:38:13;99532.63;;;7.56;100.00
6387;BME280;3226;42.162;24.756;2024-03-06T01:40:43;99534.47;;;7.67;100.00
6387;BME280;3226;42.162;24.756;2024-03-06T01:43:22;99522.31;;;7.55;100.00
6387;BME280;3226;42.162;24.756;2024-03-06T01:45:52;99537.53;;;7.61;100.00
6387;BME280;3226;42.162;24.756;2024-03-06T01:48:22;99518.03;;;7.53;100.00
6387;BME280;3226;42.162;24.756;2024-03-06T01:50:53;99530.13;;;7.55;100.00
6387;BME280;3226;42.162;24.756;2024-03-06T01:53:21;99539.38;;;7.59;100.00
6387;BME280;3226;42.162;24.756;2024-03-06T01:55:51;99541.78;;;7.62;100.00
6387;BME280;3226;42.162;24.756;2024-03-06T01:58:20;99521.34;;;7.56;100.00
6387;BME280;3226;42.162;24.756;2024-03-06T02:00:49;99533.84;;;7.63;100.00
6387;BME280;3226;42.162;24.756;2024-03-06T02:03:19;99535.63;;;7.63;100.00
6387;BME280;3226;42.162;24.756;2024-03-06T02:05:48;99539.47;;;7.70;100.00
6387;BME280;3226;42.162;24.756;2024-03-06T02:08:16;99533.41;;;7.70;100.00
6387;BME280;3226;42.162;24.756;2024-03-06T02:10:45;99542.56;;;7.75;100.00
6387;BME280;3226;42.162;24.756;2024-03-06T02:13:14;99522.97;;;7.70;100.00
6387;BME280;3226;42.162;24.756;2024-03-06T02:15:44;99530.63;;;7.60;100.00
6387;BME280;3226;42.162;24.756;2024-03-06T02:18:12;99544.81;;;7.56;100.00
6387;BME280;3226;42.162;24.756;2024-03-06T02:20:42;99544.50;;;7.60;100.00
6387;BME280;3226;42.162;24.756;2024-03-06T02:23:10;99536.56;;;7.62;100.00
6387;BME280;3226;42.162;24.756;2024-03-06T02:25:38;99541.78;;;7.62;100.00
6387;BME280;3226;42.162;24.756;2024-03-06T02:28:06;99527.63;;;7.53;100.00
6387;BME280;3226;42.162;24.756;2024-03-06T02:30:34;99523.66;;;7.60;100.00
6387;BME280;3226;42.162;24.756;2024-03-06T02:33:04;99529.72;;;7.61;100.00
6387;BME280;3226;42.162;24.756;2024-03-06T02:35:33;99538.84;;;7.66;100.00
6387;BME280;3226;42.162;24.756;2024-03-06T02:38:04;99529.84;;;7.71;100.00
6387;BME280;3226;42.162;24.756;2024-03-06T02:40:32;99541.13;;;7.71;100.00
6387;BME280;3226;42.162;24.756;2024-03-06T02:43:01;99522.81;;;7.60;100.00
6387;BME280;3226;42.162;24.756;2024-03-06T02:45:29;99545.13;;;7.64;100.00
6387;BME280;3226;42.162;24.756;2024-03-06T02:47:57;99541.97;;;7.59;100.00
6387;BME280;3226;42.162;24.756;2024-03-06T02:50:25;99540.53;;;7.55;100.00
6387;BME280;3226;42.162;24.756;2024-03-06T02:52:53;99551.41;;;7.48;100.00
6387;BME280;3226;42.162;24.756;2024-03-06T02:55:23;99548.81;;;7.48;100.00
6387;BME280;3226;42.162;24.756;2024-03-06T02:57:51;99547.13;;;7.47;100.00
6387;BME280;3226;42.162;24.756;2024-03-06T03:00:19;99550.47;;;7.49;100.00
6387;BME280;3226;42.162;24.756;2024-03-06T03:02:48;99553.63;;;7.42;100.00
6387;BME280;3226;42.162;24.756;2024-03-06T03:05:16;99545.59;;;7.45;100.00
6387;BME280;3226;42.162;24.756;2024-03-06T03:07:44;99545.59;;;7.45;100.00
6387;BME280;3226;42.162;24.756;2024-03-06T03:10:12;99543.72;;;7.47;100.00
6387;BME280;3226;42.162;24.756;2024-03-06T03:12:42;99541.53;;;7.41;100.00
6387;BME280;3226;42.162;24.756;2024-03-06T03:15:10;99551.94;;;7.41;100.00
6387;BME280;3226;42.162;24.756;2024-03-06T03:17:38;99557.34;;;7.50;100.00
6387;BME280;3226;42.162;24.756;2024-03-06T03:20:07;99547.31;;;7.33;100.00
6387;BME280;3226;42.162;24.756;2024-03-06T03:22:38;99548.47;;;7.29;100.00
6387;BME280;3226;42.162;24.756;2024-03-06T03:25:07;99555.72;;;7.36;100.00
6387;BME280;3226;42.162;24.756;2024-03-06T03:27:36;99555.13;;;7.33;100.00
6387;BME280;3226;42.162;24.756;2024-03-06T03:30:07;99555.13;;;7.33;100.00
6387;BME280;3226;42.162;24.756;2024-03-06T03:32:37;99443.19;;;6.70;100.00
6387;BME280;3226;42.162;24.756;2024-03-06T03:35:06;99535.34;;;7.17;100.00
6387;BME280;3226;42.162;24.756;2024-03-06T03:37:34;99552.09;;;7.26;100.00
6387;BME280;3226;42.162;24.756;2024-03-06T03:40:02;99554.28;;;7.32;100.00
6387;BME280;3226;42.162;24.756;2024-03-06T03:42:30;99552.56;;;7.44;100.00
6387;BME280;3226;42.162;24.756;2024-03-06T03:44:58;99553.75;;;7.27;100.00
6387;BME280;3226;42.162;24.756;2024-03-06T03:47:28;99557.50;;;7.36;100.00
6387;BME280;3226;42.162;24.756;2024-03-06T03:49:56;99563.56;;;7.23;100.00
6387;BME280;3226;42.162;24.756;2024-03-06T03:52:35;99546.31;;;7.09;100.00
6387;BME280;3226;42.162;24.756;2024-03-06T03:55:08;99545.66;;;7.19;100.00
6387;BME280;3226;42.162;24.756;2024-03-06T03:57:36;99520.09;;;6.87;100.00
6387;BME280;3226;42.162;24.756;2024-03-06T04:00:05;99567.97;;;7.10;100.00
6387;BME280;3226;42.162;24.756;2024-03-06T04:02:39;99571.22;;;7.14;100.00
6387;BME280;3226;42.162;24.756;2024-03-06T04:05:07;99575.78;;;7.10;100.00
6387;BME280;3226;42.162;24.756;2024-03-06T04:07:37;99576.50;;;7.12;100.00
6387;BME280;3226;42.162;24.756;2024-03-06T04:10:06;99572.75;;;7.16;100.00
6387;BME280;3226;42.162;24.756;2024-03-06T04:12:38;99577.34;;;7.13;100.00
6387;BME280;3226;42.162;24.756;2024-03-06T04:15:07;99560.38;;;6.81;100.00
6387;BME280;3226;42.162;24.756;2024-03-06T04:17:35;99570.72;;;6.83;100.00
6387;BME280;3226;42.162;24.756;2024-03-06T04:20:06;99579.88;;;6.75;100.00
6387;BME280;3226;42.162;24.756;2024-03-06T04:22:34;99557.81;;;6.55;100.00
6387;BME280;3226;42.162;24.756;2024-03-06T04:25:03;99586.75;;;6.63;100.00
6387;BME280;3226;42.162;24.756;2024-03-06T04:27:31;99586.53;;;6.67;100.00
6387;BME280;3226;42.162;24.756;2024-03-06T04:29:59;99580.69;;;6.76;100.00
6387;BME280;3226;42.162;24.756;2024-03-06T04:32:27;99588.63;;;6.74;100.00
6387;BME280;3226;42.162;24.756;2024-03-06T04:34:55;99599.41;;;6.68;100.00
6387;BME280;3226;42.162;24.756;2024-03-06T04:37:25;99592.66;;;6.65;100.00
6387;BME280;3226;42.162;24.756;2024-03-06T04:39:56;99589.34;;;6.63;100.00
6387;BME280;3226;42.162;24.756;2024-03-06T04:42:24;99596.50;;;6.60;100.00
6387;BME280;3226;42.162;24.756;2024-03-06T04:44:52;99582.13;;;6.28;100.00
6387;BME280;3226;42.162;24.756;2024-03-06T04:47:20;99596.56;;;6.32;100.00
6387;BME280;3226;42.162;24.756;2024-03-06T04:49:47;99594.38;;;6.26;100.00
6387;BME280;3226;42.162;24.756;2024-03-06T04:52:16;99603.69;;;6.16;100.00
6387;BME280;3226;42.162;24.756;2024-03-06T04:54:46;99601.22;;;6.14;100.00
6387;BME280;3226;42.162;24.756;2024-03-06T04:57:14;99611.25;;;6.33;100.00
6387;BME280;3226;42.162;24.756;2024-03-06T04:59:42;99606.25;;;6.30;100.00
6387;BME280;3226;42.162;24.756;2024-03-06T05:02:09;99606.25;;;6.30;100.00
6387;BME280;3226;42.162;24.756;2024-03-06T05:04:38;99609.34;;;6.22;100.00
6387;BME280;3226;42.162;24.756;2024-03-06T05:07:23;99608.72;;;6.19;100.00
6387;BME280;3226;42.162;24.756;2024-03-06T05:10:10;99609.47;;;6.21;100.00
6387;BME280;3226;42.162;24.756;2024-03-06T05:12:56;99614.53;;;6.22;100.00
6387;BME280;3226;42.162;24.756;2024-03-06T05:15:41;99616.41;;;6.20;100.00
6387;BME280;3226;42.162;24.756;2024-03-06T05:18:27;99619.63;;;6.11;100.00
6387;BME280;3226;42.162;24.756;2024-03-06T05:21:12;99621.97;;;6.01;100.00
6387;BME280;3226;42.162;24.756;2024-03-06T05:23:58;99629.09;;;6.12;100.00
6387;BME280;3226;42.162;24.756;2024-03-06T05:26:45;99627.50;;;6.10;100.00
6387;BME280;3226;42.162;24.756;2024-03-06T05:29:30;99600.28;;;5.73;100.00
6387;BME280;3226;42.162;24.756;2024-03-06T05:32:16;99641.75;;;6.04;100.00
6387;BME280;3226;42.162;24.756;2024-03-06T05:35:02;99644.59;;;5.99;100.00
6387;BME280;3226;42.162;24.756;2024-03-06T05:37:47;99642.59;;;5.90;100.00
6387;BME280;3226;42.162;24.756;2024-03-06T05:40:33;99643.50;;;6.03;100.00
6387;BME280;3226;42.162;24.756;2024-03-06T05:43:23;99643.81;;;6.26;100.00
6387;BME280;3226;42.162;24.756;2024-03-06T05:46:08;99637.19;;;6.48;100.00
6387;BME280;3226;42.162;24.756;2024-03-06T05:48:53;99643.34;;;6.60;100.00
6387;BME280;3226;42.162;24.756;2024-03-06T05:51:39;99650.22;;;6.61;100.00
6387;BME280;3226;42.162;24.756;2024-03-06T05:54:24;99637.72;;;6.66;100.00
6387;BME280;3226;42.162;24.756;2024-03-06T05:57:09;99551.22;;;6.49;100.00
6387;BME280;3226;42.162;24.756;2024-03-06T05:59:56;99644.63;;;7.06;100.00
6387;BME280;3226;42.162;24.756;2024-03-06T06:02:24;99627.13;;;6.95;100.00
6387;BME280;3226;42.162;24.756;2024-03-06T06:04:52;99655.44;;;7.51;100.00
6387;BME280;3226;42.162;24.756;2024-03-06T06:07:40;99663.25;;;7.89;100.00
6387;BME280;3226;42.162;24.756;2024-03-06T06:10:08;99658.56;;;8.18;100.00
6387;BME280;3226;42.162;24.756;2024-03-06T06:12:37;99649.41;;;7.88;100.00
6387;BME280;3226;42.162;24.756;2024-03-06T06:15:07;99651.38;;;7.85;100.00
6387;BME280;3226;42.162;24.756;2024-03-06T06:17:35;99665.28;;;8.09;100.00
6387;BME280;3226;42.162;24.756;2024-03-06T06:20:06;99644.53;;;8.32;100.00
6387;BME280;3226;42.162;24.756;2024-03-06T06:22:36;99662.91;;;8.06;100.00
6387;BME280;3226;42.162;24.756;2024-03-06T06:25:05;99642.41;;;7.51;100.00
6387;BME280;3226;42.162;24.756;2024-03-06T06:27:34;99669.94;;;7.43;100.00
6387;BME280;3226;42.162;24.756;2024-03-06T06:30:02;99632.34;;;7.08;100.00
6387;BME280;3226;42.162;24.756;2024-03-06T06:32:34;99668.56;;;7.63;100.00
6387;BME280;3226;42.162;24.756;2024-03-06T06:35:03;99667.97;;;7.84;100.00
6387;BME280;3226;42.162;24.756;2024-03-06T06:37:31;99664.28;;;7.99;100.00
6387;BME280;3226;42.162;24.756;2024-03-06T06:40:01;99664.00;;;8.39;100.00
6387;BME280;3226;42.162;24.756;2024-03-06T06:42:34;99669.47;;;8.72;100.00
6387;BME280;3226;42.162;24.756;2024-03-06T06:45:03;99672.00;;;8.85;100.00
6387;BME280;3226;42.162;24.756;2024-03-06T06:47:35;99610.41;;;8.47;100.00
6387;BME280;3226;42.162;24.756;2024-03-06T06:50:03;99662.75;;;8.92;100.00
6387;BME280;3226;42.162;24.756;2024-03-06T06:52:33;99676.50;;;8.72;100.00
6387;BME280;3226;42.162;24.756;2024-03-06T06:55:01;99659.28;;;8.80;100.00
6387;BME280;3226;42.162;24.756;2024-03-06T06:57:29;99645.00;;;8.62;100.00
6387;BME280;3226;42.162;24.756;2024-03-06T06:59:57;99667.97;;;8.92;100.00
6387;BME280;3226;42.162;24.756;2024-03-06T07:02:25;99680.84;;;9.30;100.00
6387;BME280;3226;42.162;24.756;2024-03-06T07:04:55;99686.88;;;9.19;100.00
6387;BME280;3226;42.162;24.756;2024-03-06T07:07:23;99668.59;;;9.19;100.00
6387;BME280;3226;42.162;24.756;2024-03-06T07:09:52;99687.97;;;9.16;100.00
6387;BME280;3226;42.162;24.756;2024-03-06T07:12:20;99653.66;;;8.62;100.00
6387;BME280;3226;42.162;24.756;2024-03-06T07:14:48;99687.06;;;8.81;100.00
6387;BME280;3226;42.162;24.756;2024-03-06T07:17:16;99685.69;;;9.11;100.00
6387;BME280;3226;42.162;24.756;2024-03-06T07:19:44;99681.66;;;9.07;100.00
6387;BME280;3226;42.162;24.756;2024-03-06T07:22:14;99674.19;;;9.37;100.00
6387;BME280;3226;42.162;24.756;2024-03-06T07:24:42;99691.91;;;9.45;100.00
6387;BME280;3226;42.162;24.756;2024-03-06T07:27:10;99685.84;;;9.33;100.00
6387;BME280;3226;42.162;24.756;2024-03-06T07:29:38;99684.19;;;9.43;100.00
6387;BME280;3226;42.162;24.756;2024-03-06T07:32:06;99683.41;;;9.98;100.00
6387;BME280;3226;42.162;24.756;2024-03-06T07:34:35;99687.38;;;10.48;100.00
6387;BME280;3226;42.162;24.756;2024-03-06T07:37:03;99650.47;;;10.07;100.00
6387;BME280;3226;42.162;24.756;2024-03-06T07:39:33;99669.59;;;10.19;100.00
6387;BME280;3226;42.162;24.756;2024-03-06T07:42:01;99683.09;;;10.47;100.00
6387;BME280;3226;42.162;24.756;2024-03-06T07:44:30;99687.16;;;10.28;100.00
6387;BME280;3226;42.162;24.756;2024-03-06T07:46:58;99687.09;;;10.07;100.00
6387;BME280;3226;42.162;24.756;2024-03-06T07:49:26;99681.16;;;10.49;100.00
6387;BME280;3226;42.162;24.756;2024-03-06T07:51:54;99675.47;;;10.44;98.69
6387;BME280;3226;42.162;24.756;2024-03-06T07:54:23;99675.28;;;10.24;98.72
6387;BME280;3226;42.162;24.756;2024-03-06T07:56:53;99680.09;;;10.73;98.11
6387;BME280;3226;42.162;24.756;2024-03-06T07:59:21;99671.09;;;10.87;95.16
6387;BME280;3226;42.162;24.756;2024-03-06T08:01:49;99680.22;;;10.92;94.26
6387;BME280;3226;42.162;24.756;2024-03-06T08:04:17;99683.88;;;11.01;93.39
6387;BME280;3226;42.162;24.756;2024-03-06T08:06:45;99682.00;;;10.92;91.62
6387;BME280;3226;42.162;24.756;2024-03-06T08:09:13;99682.16;;;10.25;94.98
6387;BME280;3226;42.162;24.756;2024-03-06T08:11:40;99685.59;;;10.37;94.14
6387;BME280;3226;42.162;24.756;2024-03-06T08:14:10;99685.84;;;10.22;96.19
6387;BME280;3226;42.162;24.756;2024-03-06T08:16:38;99690.47;;;10.30;94.68
6387;BME280;3226;42.162;24.756;2024-03-06T08:19:07;99686.66;;;10.46;96.39
6387;BME280;3226;42.162;24.756;2024-03-06T08:21:36;99690.44;;;10.53;94.83
6387;BME280;3226;42.162;24.756;2024-03-06T08:24:04;99676.72;;;10.82;91.74
6387;BME280;3226;42.162;24.756;2024-03-06T08:26:33;99647.44;;;10.55;93.78
6387;BME280;3226;42.162;24.756;2024-03-06T08:29:01;99660.78;;;10.52;92.71
6387;BME280;3226;42.162;24.756;2024-03-06T08:31:31;99668.25;;;11.21;91.49
6387;BME280;3226;42.162;24.756;2024-03-06T08:33:59;99637.78;;;10.98;88.20
6387;BME280;3226;42.162;24.756;2024-03-06T08:36:28;99678.28;;;11.47;88.12
6387;BME280;3226;42.162;24.756;2024-03-06T08:38:56;99674.84;;;11.46;84.45
6387;BME280;3226;42.162;24.756;2024-03-06T08:41:24;99670.50;;;12.17;84.21
6387;BME280;3226;42.162;24.756;2024-03-06T08:43:52;99672.97;;;12.78;76.99
6387;BME280;3226;42.162;24.756;2024-03-06T08:46:21;99670.03;;;12.91;76.08
6387;BME280;3226;42.162;24.756;2024-03-06T08:48:52;99670.72;;;12.93;75.30
6387;BME280;3226;42.162;24.756;2024-03-06T08:51:20;99665.75;;;12.80;74.99
6387;BME280;3226;42.162;24.756;2024-03-06T08:53:48;99640.50;;;12.29;78.73
6387;BME280;3226;42.162;24.756;2024-03-06T08:56:16;99628.19;;;12.50;79.24
6387;BME280;3226;42.162;24.756;2024-03-06T08:58:45;99668.97;;;13.31;76.87
6387;BME280;3226;42.162;24.756;2024-03-06T09:01:13;99674.41;;;13.10;76.62
6387;BME280;3226;42.162;24.756;2024-03-06T09:03:41;99670.38;;;12.38;75.85
6387;BME280;3226;42.162;24.756;2024-03-06T09:06:10;99658.53;;;13.01;76.07
6387;BME280;3226;42.162;24.756;2024-03-06T09:08:39;99668.78;;;12.85;75.36
6387;BME280;3226;42.162;24.756;2024-03-06T09:11:07;99662.34;;;12.69;76.21
6387;BME280;3226;42.162;24.756;2024-03-06T09:13:35;99656.38;;;12.77;77.72
6387;BME280;3226;42.162;24.756;2024-03-06T09:16:03;99664.59;;;13.12;75.52
6387;BME280;3226;42.162;24.756;2024-03-06T09:18:31;99667.91;;;13.62;72.74
6387;BME280;3226;42.162;24.756;2024-03-06T09:21:00;99668.72;;;14.63;70.57
6387;BME280;3226;42.162;24.756;2024-03-06T09:23:30;99669.66;;;14.71;66.29
6387;BME280;3226;42.162;24.756;2024-03-06T09:25:59;99659.06;;;14.89;65.51
6387;BME280;3226;42.162;24.756;2024-03-06T09:28:27;99661.97;;;15.05;61.75
6387;BME280;3226;42.162;24.756;2024-03-06T09:30:56;99663.09;;;14.76;62.38
6387;BME280;3226;42.162;24.756;2024-03-06T09:33:23;99644.03;;;14.45;63.74
6387;BME280;3226;42.162;24.756;2024-03-06T09:35:52;99650.88;;;14.74;62.73
6387;BME280;3226;42.162;24.756;2024-03-06T09:38:20;99661.63;;;14.81;60.39
6387;BME280;3226;42.162;24.756;2024-03-06T09:40:49;99651.97;;;14.90;64.28
6387;BME280;3226;42.162;24.756;2024-03-06T09:43:18;99608.00;;;14.91;60.31
6387;BME280;3226;42.162;24.756;2024-03-06T09:45:48;99652.94;;;15.15;60.13
6387;BME280;3226;42.162;24.756;2024-03-06T09:48:20;99653.53;;;14.38;60.83
6387;BME280;3226;42.162;24.756;2024-03-06T09:50:49;99646.34;;;13.76;62.97
6387;BME280;3226;42.162;24.756;2024-03-06T09:53:20;99643.25;;;13.63;64.80
6387;BME280;3226;42.162;24.756;2024-03-06T09:55:51;99641.09;;;13.94;66.42
6387;BME280;3226;42.162;24.756;2024-03-06T09:58:19;99641.34;;;14.37;62.13
6387;BME280;3226;42.162;24.756;2024-03-06T10:00:48;99640.03;;;15.04;61.83
6387;BME280;3226;42.162;24.756;2024-03-06T10:03:18;99633.88;;;15.22;60.33
6387;BME280;3226;42.162;24.756;2024-03-06T10:05:46;99644.13;;;15.33;62.04
6387;BME280;3226;42.162;24.756;2024-03-06T10:08:15;99634.31;;;16.11;61.23
6387;BME280;3226;42.162;24.756;2024-03-06T10:10:43;99629.72;;;15.62;60.53
6387;BME280;3226;42.162;24.756;2024-03-06T10:13:15;99636.53;;;15.30;62.68
6387;BME280;3226;42.162;24.756;2024-03-06T10:15:56;99631.91;;;15.24;65.27
6387;BME280;3226;42.162;24.756;2024-03-06T10:18:26;99630.53;;;15.54;60.48
6387;BME280;3226;42.162;24.756;2024-03-06T10:20:55;99632.25;;;15.02;60.83
6387;BME280;3226;42.162;24.756;2024-03-06T10:23:23;99627.56;;;14.88;63.90
6387;BME280;3226;42.162;24.756;2024-03-06T10:25:52;99621.59;;;14.78;58.35
6387;BME280;3226;42.162;24.756;2024-03-06T10:28:22;99625.25;;;14.67;60.31
6387;BME280;3226;42.162;24.756;2024-03-06T10:30:51;99619.03;;;14.94;61.81
6387;BME280;3226;42.162;24.756;2024-03-06T10:33:20;99529.03;;;14.63;57.73
6387;BME280;3226;42.162;24.756;2024-03-06T10:35:48;99612.19;;;14.83;60.58
6387;BME280;3226;42.162;24.756;2024-03-06T10:38:16;99610.50;;;15.00;60.29
6387;BME280;3226;42.162;24.756;2024-03-06T10:40:50;99609.25;;;15.13;59.53
6387;BME280;3226;42.162;24.756;2024-03-06T10:43:21;99607.25;;;14.62;59.77
6387;BME280;3226;42.162;24.756;2024-03-06T10:45:53;99571.00;;;14.11;58.52
6387;BME280;3226;42.162;24.756;2024-03-06T10:48:28;99602.25;;;14.51;57.84
6387;BME280;3226;42.162;24.756;2024-03-06T10:50:57;99573.69;;;14.20;60.81
6387;BME280;3226;42.162;24.756;2024-03-06T10:53:29;99593.72;;;14.57;58.54
6387;BME280;3226;42.162;24.756;2024-03-06T10:56:00;99570.63;;;14.51;58.93
6387;BME280;3226;42.162;24.756;2024-03-06T10:58:33;99564.31;;;14.70;55.60
6387;BME280;3226;42.162;24.756;2024-03-06T11:01:02;99584.19;;;14.82;55.93
6387;BME280;3226;42.162;24.756;2024-03-06T11:03:31;99567.53;;;15.08;54.36
6387;BME280;3226;42.162;24.756;2024-03-06T11:06:03;99576.66;;;15.30;55.03
6387;BME280;3226;42.162;24.756;2024-03-06T11:08:32;99558.19;;;15.22;53.58
6387;BME280;3226;42.162;24.756;2024-03-06T11:11:20;99563.09;;;15.09;53.71
6387;BME280;3226;42.162;24.756;2024-03-06T11:13:52;99568.50;;;15.58;52.42
6387;BME280;3226;42.162;24.756;2024-03-06T11:16:27;99553.97;;;15.46;53.06
6387;BME280;3226;42.162;24.756;2024-03-06T11:19:05;99557.72;;;15.27;53.54
6387;BME280;3226;42.162;24.756;2024-03-06T11:21:35;99568.28;;;15.35;55.82
6387;BME280;3226;42.162;24.756;2024-03-06T11:24:14;99562.72;;;15.55;53.56
6387;BME280;3226;42.162;24.756;2024-03-06T11:26:43;99559.47;;;15.69;52.11
6387;BME280;3226;42.162;24.756;2024-03-06T11:29:15;99551.56;;;15.18;49.66
6387;BME280;3226;42.162;24.756;2024-03-06T11:32:06;99563.47;;;14.87;51.68
6387;BME280;3226;42.162;24.756;2024-03-06T11:34:36;99561.78;;;15.13;51.26
6387;BME280;3226;42.162;24.756;2024-03-06T11:37:05;99545.94;;;15.05;49.97
6387;BME280;3226;42.162;24.756;2024-03-06T11:39:37;99545.19;;;14.94;50.01
6387;BME280;3226;42.162;24.756;2024-03-06T11:42:06;99544.56;;;15.00;52.62
6387;BME280;3226;42.162;24.756;2024-03-06T11:44:37;99539.38;;;14.29;57.50
6387;BME280;3226;42.162;24.756;2024-03-06T11:47:20;99535.94;;;14.82;58.34
6387;BME280;3226;42.162;24.756;2024-03-06T11:49:49;99544.41;;;14.94;58.03
6387;BME280;3226;42.162;24.756;2024-03-06T11:52:17;99543.47;;;14.77;59.92
6387;BME280;3226;42.162;24.756;2024-03-06T11:54:54;99545.41;;;14.22;62.74
6387;BME280;3226;42.162;24.756;2024-03-06T11:57:22;99498.56;;;14.07;62.01
6387;BME280;3226;42.162;24.756;2024-03-06T11:59:52;99517.94;;;13.62;64.09
6387;BME280;3226;42.162;24.756;2024-03-06T12:02:20;99547.09;;;13.68;63.89
6387;BME280;3226;42.162;24.756;2024-03-06T12:04:48;99548.53;;;13.81;64.16
6387;BME280;3226;42.162;24.756;2024-03-06T12:07:18;99483.56;;;13.63;62.67
6387;BME280;3226;42.162;24.756;2024-03-06T12:09:46;99528.03;;;14.11;62.57
6387;BME280;3226;42.162;24.756;2024-03-06T12:12:16;99538.78;;;14.17;62.20
6387;BME280;3226;42.162;24.756;2024-03-06T12:14:55;99538.47;;;14.21;62.25
6387;BME280;3226;42.162;24.756;2024-03-06T12:17:24;99539.19;;;14.31;61.66
6387;BME280;3226;42.162;24.756;2024-03-06T12:19:55;99534.56;;;14.25;61.23
6387;BME280;3226;42.162;24.756;2024-03-06T12:22:25;99535.97;;;14.37;61.41
6387;BME280;3226;42.162;24.756;2024-03-06T12:24:58;99542.22;;;14.36;62.41
6387;BME280;3226;42.162;24.756;2024-03-06T12:27:28;99531.47;;;14.29;62.74
6387;BME280;3226;42.162;24.756;2024-03-06T12:29:56;99534.13;;;14.11;64.06
6387;BME280;3226;42.162;24.756;2024-03-06T12:32:24;99533.94;;;14.31;63.84
6387;BME280;3226;42.162;24.756;2024-03-06T12:34:57;99536.81;;;14.20;65.40
6387;BME280;3226;42.162;24.756;2024-03-06T12:37:30;99530.34;;;14.14;66.85
6387;BME280;3226;42.162;24.756;2024-03-06T12:39:59;99531.53;;;14.38;65.14
6387;BME280;3226;42.162;24.756;2024-03-06T12:42:29;99521.03;;;14.20;64.03
6387;BME280;3226;42.162;24.756;2024-03-06T12:44:57;99538.06;;;14.34;66.42
6387;BME280;3226;42.162;24.756;2024-03-06T12:47:25;99539.00;;;14.51;64.04
6387;BME280;3226;42.162;24.756;2024-03-06T12:49:54;99535.19;;;14.45;63.68
6387;BME280;3226;42.162;24.756;2024-03-06T12:52:22;99538.25;;;14.32;64.07
6387;BME280;3226;42.162;24.756;2024-03-06T12:54:50;99532.44;;;14.28;63.81
6387;BME280;3226;42.162;24.756;2024-03-06T12:57:18;99544.75;;;14.01;65.44
6387;BME280;3226;42.162;24.756;2024-03-06T12:59:47;99535.06;;;13.66;66.38
6387;BME280;3226;42.162;24.756;2024-03-06T13:02:15;99507.59;;;13.68;67.19
6387;BME280;3226;42.162;24.756;2024-03-06T13:04:43;99518.50;;;13.92;66.58
6387;BME280;3226;42.162;24.756;2024-03-06T13:07:11;99529.47;;;14.05;66.94
6387;BME280;3226;42.162;24.756;2024-03-06T13:09:41;99532.53;;;14.19;65.36
6387;BME280;3226;42.162;24.756;2024-03-06T13:12:09;99530.25;;;14.24;63.65
6387;BME280;3226;42.162;24.756;2024-03-06T13:14:37;99538.25;;;14.32;63.09
6387;BME280;3226;42.162;24.756;2024-03-06T13:17:07;99538.13;;;14.42;63.31
6387;BME280;3226;42.162;24.756;2024-03-06T13:19:35;99514.41;;;14.15;63.16
6387;BME280;3226;42.162;24.756;2024-03-06T13:22:03;99522.94;;;14.36;64.16
6387;BME280;3226;42.162;24.756;2024-03-06T13:24:34;99529.16;;;14.26;64.03
6387;BME280;3226;42.162;24.756;2024-03-06T13:27:07;99521.66;;;14.13;63.70